createdAt,value
2022-12-06T00:01:18.475Z,6.95
2022-12-06T00:03:47.877Z,6.97
2022-12-06T00:06:17.415Z,7.01
2022-12-06T00:08:44.912Z,7.02
2022-12-06T00:11:16.001Z,7.03
2022-12-06T00:13:43.264Z,7.01
2022-12-06T00:16:13.387Z,7.03
2022-12-06T00:18:41.381Z,7.03
2022-12-06T00:21:12.094Z,7.04
2022-12-06T00:23:40.898Z,7.02
2022-12-06T00:26:10.899Z,6.99
2022-12-06T00:28:38.305Z,6.99
2022-12-06T00:31:07.760Z,6.99
2022-12-06T00:33:35.812Z,6.98
2022-12-06T00:36:14.747Z,6.98
2022-12-06T00:38:41.427Z,6.98
2022-12-06T00:41:15.698Z,6.95
2022-12-06T00:43:43.176Z,6.96
2022-12-06T00:46:13.236Z,6.97
2022-12-06T00:48:39.802Z,6.95
2022-12-06T00:51:06.396Z,6.96
2022-12-06T00:53:32.877Z,6.95
2022-12-06T00:55:59.351Z,6.94
2022-12-06T00:58:25.841Z,6.94
2022-12-06T01:00:53.118Z,6.90
2022-12-06T01:03:20.375Z,6.94
2022-12-06T01:05:49.668Z,6.94
2022-12-06T01:08:17.709Z,6.94
2022-12-06T01:10:52.493Z,6.95
2022-12-06T01:13:19.084Z,6.96
2022-12-06T01:15:45.514Z,7.00
2022-12-06T01:18:11.980Z,7.00
2022-12-06T01:20:38.403Z,6.99
2022-12-06T01:23:07.270Z,6.99
2022-12-06T01:25:36.073Z,7.00
2022-12-06T01:28:03.148Z,7.02
2022-12-06T01:30:29.783Z,7.03
2022-12-06T01:32:56.408Z,7.01
2022-12-06T01:35:26.012Z,7.01
2022-12-06T01:37:52.496Z,7.03
2022-12-06T01:40:18.971Z,7.04
2022-12-06T01:42:45.333Z,7.05
2022-12-06T01:45:11.940Z,7.03
2022-12-06T01:47:43.752Z,7.01
2022-12-06T01:50:13.165Z,7.00
2022-12-06T01:53:06.963Z,7.03
2022-12-06T01:55:36.708Z,7.04
2022-12-06T01:58:11.030Z,7.05
2022-12-06T02:00:37.754Z,7.05
2022-12-06T02:03:08.163Z,7.08
2022-12-06T02:05:40.902Z,7.06
2022-12-06T02:08:09.932Z,7.08
2022-12-06T02:10:37.112Z,7.08
2022-12-06T02:13:03.691Z,7.09
2022-12-06T02:15:59.456Z,7.10
2022-12-06T02:18:43.384Z,7.08
2022-12-06T02:21:35.823Z,7.06
2022-12-06T02:24:27.968Z,7.06
2022-12-06T02:27:35.747Z,7.09
2022-12-06T02:30:13.558Z,7.09
2022-12-06T02:32:49.215Z,7.07
2022-12-06T02:35:30.258Z,7.06
2022-12-06T02:38:02.942Z,7.06
2022-12-06T02:40:35.928Z,7.08
2022-12-06T02:43:08.527Z,7.05
2022-12-06T02:45:43.873Z,7.07
2022-12-06T02:48:11.978Z,7.08
2022-12-06T02:50:43.633Z,7.04
2022-12-06T02:53:14.862Z,7.05
2022-12-06T02:55:42.530Z,7.07
2022-12-06T02:58:09.792Z,7.05
2022-12-06T03:00:45.173Z,7.06
2022-12-06T03:03:33.574Z,7.06
2022-12-06T03:06:22.723Z,7.06
2022-12-06T03:09:05.176Z,7.06
2022-12-06T03:11:57.461Z,7.05
2022-12-06T03:14:26.663Z,7.07
2022-12-06T03:17:29.104Z,7.06
2022-12-06T03:20:12.259Z,7.05
2022-12-06T03:22:54.736Z,7.04
2022-12-06T03:25:21.413Z,7.05
2022-12-06T03:27:49.688Z,6.98
2022-12-06T03:30:16.861Z,6.95
2022-12-06T03:32:46.687Z,6.97
2022-12-06T03:35:18.724Z,6.99
2022-12-06T03:37:49.969Z,7.00
2022-12-06T03:40:32.953Z,6.99
2022-12-06T03:43:00.204Z,7.01
2022-12-06T03:45:36.304Z,7.01
2022-12-06T03:48:15.544Z,7.02
2022-12-06T03:50:47.763Z,6.97
2022-12-06T03:53:20.269Z,6.96
2022-12-06T03:55:46.950Z,6.96
2022-12-06T03:58:13.411Z,6.96
2022-12-06T04:00:39.899Z,6.96
2022-12-06T04:03:06.498Z,6.97
2022-12-06T04:05:33.154Z,6.97
2022-12-06T04:07:59.733Z,6.97
2022-12-06T04:10:26.223Z,6.98
2022-12-06T04:13:01.787Z,7.00
2022-12-06T04:15:31.589Z,7.00
2022-12-06T04:18:11.258Z,7.02
2022-12-06T04:21:01.860Z,7.02
2022-12-06T04:23:29.502Z,7.02
2022-12-06T04:26:02.317Z,7.01
2022-12-06T04:28:47.170Z,7.02
2022-12-06T04:31:32.351Z,7.06
2022-12-06T04:34:17.990Z,7.06
2022-12-06T04:37:03.580Z,7.07
2022-12-06T04:39:30.075Z,7.04
2022-12-06T04:42:15.593Z,7.05
2022-12-06T04:44:42.253Z,7.07
2022-12-06T04:47:10.341Z,7.08
2022-12-06T04:49:37.609Z,7.10
2022-12-06T04:52:04.939Z,7.11
2022-12-06T04:54:31.493Z,7.13
2022-12-06T04:56:59.197Z,7.16
2022-12-06T04:59:26.856Z,7.14
2022-12-06T05:01:53.605Z,7.16
2022-12-06T05:04:20.337Z,7.15
2022-12-06T05:06:47.650Z,7.16
2022-12-06T05:09:14.860Z,7.17
2022-12-06T05:11:41.583Z,7.19
2022-12-06T05:14:08.288Z,7.23
2022-12-06T05:16:36.443Z,7.25
2022-12-06T05:19:03.141Z,7.23
2022-12-06T05:21:29.618Z,7.26
2022-12-06T05:23:56.815Z,7.23
2022-12-06T05:26:26.025Z,7.27
2022-12-06T05:28:53.779Z,7.26
2022-12-06T05:31:21.151Z,7.27
2022-12-06T05:33:50.980Z,7.29
2022-12-06T05:36:25.494Z,7.33
2022-12-06T05:38:52.973Z,7.33
2022-12-06T05:41:24.916Z,7.35
2022-12-06T05:43:51.371Z,7.34
2022-12-06T05:46:18.122Z,7.33
2022-12-06T05:48:44.850Z,7.29
2022-12-06T05:51:11.442Z,7.30
2022-12-06T05:53:37.922Z,7.32
2022-12-06T05:56:07.322Z,7.26
2022-12-06T05:58:33.726Z,7.26
2022-12-06T06:01:00.216Z,7.26
2022-12-06T06:03:29.294Z,7.31
2022-12-06T06:06:01.444Z,7.35
2022-12-06T06:08:29.995Z,7.31
2022-12-06T06:11:00.257Z,7.30
2022-12-06T06:13:27.092Z,7.30
2022-12-06T06:15:53.614Z,7.31
2022-12-06T06:18:20.605Z,7.31
2022-12-06T06:20:51.908Z,7.38
2022-12-06T06:23:19.766Z,7.40
2022-12-06T06:25:46.438Z,7.41
2022-12-06T06:28:13.538Z,7.38
2022-12-06T06:30:40.189Z,7.38
2022-12-06T06:33:07.539Z,7.39
2022-12-06T06:35:34.104Z,7.42
2022-12-06T06:38:00.737Z,7.44
2022-12-06T06:40:28.591Z,7.47
2022-12-06T06:42:55.731Z,7.47
2022-12-06T06:45:28.687Z,7.50
2022-12-06T06:47:55.518Z,7.51
2022-12-06T06:50:21.911Z,7.51
2022-12-06T06:52:48.426Z,7.52
2022-12-06T06:55:14.878Z,7.52
2022-12-06T06:57:41.498Z,7.52
2022-12-06T07:00:09.289Z,7.53
2022-12-06T07:02:35.909Z,7.55
2022-12-06T07:05:02.518Z,7.57
2022-12-06T07:07:29.082Z,7.56
2022-12-06T07:09:55.461Z,7.57
2022-12-06T07:12:21.884Z,7.57
2022-12-06T07:14:48.332Z,7.58
2022-12-06T07:17:14.884Z,7.59
2022-12-06T07:19:41.356Z,7.59
2022-12-06T07:22:07.930Z,7.60
2022-12-06T07:24:39.851Z,7.59
2022-12-06T07:27:08.626Z,7.61
2022-12-06T07:29:35.075Z,7.61
2022-12-06T07:32:01.551Z,7.61
2022-12-06T07:34:28.124Z,7.62
2022-12-06T07:36:54.689Z,7.62
2022-12-06T07:39:21.179Z,7.62
2022-12-06T07:42:06.175Z,7.63
2022-12-06T07:44:52.671Z,7.62
2022-12-06T07:47:21.869Z,7.61
2022-12-06T07:49:52.542Z,7.61
2022-12-06T07:52:20.187Z,7.61
2022-12-06T07:54:46.901Z,7.61
2022-12-06T07:57:16.379Z,7.61
2022-12-06T07:59:42.731Z,7.60
2022-12-06T08:02:18.495Z,7.59
2022-12-06T08:04:45.008Z,7.59
2022-12-06T08:07:11.890Z,7.58
2022-12-06T08:09:38.411Z,7.57
2022-12-06T08:12:05.130Z,7.57
2022-12-06T08:14:31.580Z,7.56
2022-12-06T08:16:58.338Z,7.55
2022-12-06T08:19:24.779Z,7.54
2022-12-06T08:21:51.676Z,7.54
2022-12-06T08:24:18.252Z,7.52
2022-12-06T08:26:45.203Z,7.52
2022-12-06T08:29:11.572Z,7.51
2022-12-06T08:31:38.086Z,7.51
2022-12-06T08:34:04.780Z,7.50
2022-12-06T08:36:31.541Z,7.51
2022-12-06T08:39:00.130Z,7.49
2022-12-06T08:41:45.665Z,7.43
2022-12-06T08:44:14.063Z,7.39
2022-12-06T08:46:40.692Z,7.35
2022-12-06T08:49:07.161Z,7.31
2022-12-06T08:51:34.673Z,7.26
2022-12-06T08:54:01.858Z,7.20
2022-12-06T08:56:28.664Z,7.16
2022-12-06T08:58:58.678Z,7.15
2022-12-06T09:01:32.585Z,7.13
2022-12-06T09:04:04.227Z,7.12
2022-12-06T09:06:30.798Z,7.13
2022-12-06T09:08:59.777Z,7.12
2022-12-06T09:11:27.034Z,7.12
2022-12-06T09:13:53.419Z,7.12
2022-12-06T09:16:22.297Z,7.11
2022-12-06T09:18:51.345Z,7.11
2022-12-06T09:21:23.443Z,7.08
2022-12-06T09:23:50.735Z,7.09
2022-12-06T09:26:17.781Z,7.10
2022-12-06T09:28:49.394Z,7.01
2022-12-06T09:31:16.284Z,7.00
2022-12-06T09:33:42.790Z,7.01
2022-12-06T09:36:14.982Z,7.02
2022-12-06T09:38:44.079Z,7.00
2022-12-06T09:41:42.607Z,6.98
2022-12-06T09:44:48.719Z,6.96
2022-12-06T09:47:24.023Z,6.95
2022-12-06T09:49:56.511Z,6.99
2022-12-06T09:52:52.157Z,7.03
2022-12-06T09:55:40.443Z,6.99
2022-12-06T09:58:23.458Z,6.99
2022-12-06T10:01:11.494Z,6.97
2022-12-06T10:03:43.579Z,7.01
2022-12-06T10:06:16.584Z,7.02
2022-12-06T10:09:07.478Z,7.05
2022-12-06T10:11:49.376Z,7.05
2022-12-06T10:14:33.100Z,7.02
2022-12-06T10:16:59.726Z,6.97
2022-12-06T10:19:36.619Z,6.96
2022-12-06T10:22:11.936Z,7.02
2022-12-06T10:24:51.039Z,6.99
2022-12-06T10:27:33.577Z,6.99
2022-12-06T10:30:11.560Z,7.01
2022-12-06T10:32:52.423Z,7.05
2022-12-06T10:35:48.269Z,7.13
2022-12-06T10:38:53.206Z,7.19
2022-12-06T10:41:38.555Z,7.16
2022-12-06T10:44:25.919Z,7.11
2022-12-06T10:47:04.203Z,7.14
2022-12-06T10:49:48.934Z,7.18
2022-12-06T10:52:40.397Z,7.14
2022-12-06T10:55:09.925Z,7.18
2022-12-06T10:57:43.606Z,7.24
2022-12-06T11:00:28.174Z,7.19
2022-12-06T11:03:21.467Z,7.25
2022-12-06T11:06:07.455Z,7.20
2022-12-06T11:08:42.129Z,7.17
2022-12-06T11:11:23.831Z,7.17
2022-12-06T11:14:01.650Z,7.13
2022-12-06T11:16:36.478Z,7.14
2022-12-06T11:19:23.313Z,7.17
2022-12-06T11:22:13.842Z,7.14
2022-12-06T11:24:50.407Z,7.16
2022-12-06T11:27:23.737Z,7.11
2022-12-06T11:29:51.219Z,7.13
2022-12-06T11:32:19.045Z,7.10
2022-12-06T11:34:55.564Z,7.06
2022-12-06T11:37:30.736Z,7.08
2022-12-06T11:40:08.791Z,7.11
2022-12-06T11:42:35.261Z,7.19
2022-12-06T11:45:10.633Z,7.26
2022-12-06T11:47:36.998Z,7.28
2022-12-06T11:50:09.227Z,7.33
2022-12-06T11:52:43.583Z,7.35
2022-12-06T11:55:23.418Z,7.41
2022-12-06T11:58:39.383Z,7.42
2022-12-06T12:01:11.914Z,7.40
2022-12-06T12:03:42.311Z,7.39
2022-12-06T12:06:25.180Z,7.43
2022-12-06T12:09:00.274Z,7.42
2022-12-06T12:11:33.575Z,7.45
2022-12-06T12:14:07.804Z,7.48
2022-12-06T12:16:44.083Z,7.49
2022-12-06T12:19:36.275Z,7.51
2022-12-06T12:22:21.013Z,7.54
2022-12-06T12:27:50.625Z,7.60
2022-12-06T12:30:36.220Z,7.53
2022-12-06T12:33:05.446Z,7.52
2022-12-06T12:35:37.528Z,7.57
2022-12-06T12:38:14.650Z,7.58
2022-12-06T12:40:52.006Z,7.58
2022-12-06T12:43:27.557Z,7.60
2022-12-06T12:46:25.077Z,7.62
2022-12-06T12:48:52.985Z,7.64
2022-12-06T12:51:26.589Z,7.62
2022-12-06T12:53:59.549Z,7.65
2022-12-06T12:56:26.262Z,7.67
2022-12-06T12:58:55.355Z,7.66
2022-12-06T13:01:24.594Z,7.67
2022-12-06T13:04:13.382Z,7.69
2022-12-06T13:07:06.492Z,7.69
2022-12-06T13:09:38.404Z,7.69
2022-12-06T13:12:13.202Z,7.72
2022-12-06T13:14:48.493Z,7.73
2022-12-06T13:17:15.040Z,7.74
2022-12-06T13:19:51.631Z,7.75
2022-12-06T13:22:35.250Z,7.74
2022-12-06T13:25:06.143Z,7.81
2022-12-06T13:27:45.405Z,7.83
2022-12-06T13:30:17.474Z,7.81
2022-12-06T13:32:51.829Z,7.83
2022-12-06T13:35:25.628Z,7.86
2022-12-06T13:37:58.076Z,7.86
2022-12-06T13:40:33.543Z,7.88
2022-12-06T13:43:02.241Z,7.89
2022-12-06T13:45:47.087Z,7.91
2022-12-06T13:48:47.555Z,7.95
2022-12-06T13:51:34.621Z,7.97
2022-12-06T13:54:03.938Z,7.98
2022-12-06T13:56:38.055Z,8.00
2022-12-06T13:59:15.159Z,8.01
2022-12-06T14:01:52.809Z,8.01
2022-12-06T14:09:47.485Z,8.01
2022-12-06T14:12:17.548Z,8.05
2022-12-06T14:14:44.001Z,8.07
2022-12-06T14:17:32.086Z,8.04
2022-12-06T14:20:04.070Z,8.04
2022-12-06T14:22:37.247Z,8.04
2022-12-06T14:25:17.529Z,8.08
2022-12-06T14:27:48.341Z,8.10
2022-12-06T14:30:25.653Z,8.14
2022-12-06T14:32:57.740Z,8.17
2022-12-06T14:35:35.882Z,8.16
2022-12-06T14:38:22.686Z,8.18
2022-12-06T14:41:08.397Z,8.22
2022-12-06T14:43:35.478Z,8.23
2022-12-06T14:46:05.766Z,8.25
2022-12-06T14:48:53.239Z,8.25
2022-12-06T14:51:25.295Z,8.23
2022-12-06T14:53:53.515Z,8.24
2022-12-06T14:56:33.917Z,8.21
2022-12-06T14:59:10.268Z,8.21
2022-12-06T15:01:49.557Z,8.21
2022-12-06T15:04:38.783Z,8.21
2022-12-06T15:07:05.793Z,8.19
2022-12-06T15:09:44.678Z,8.19
2022-12-06T15:12:41.292Z,8.16
2022-12-06T15:15:31.262Z,8.19
2022-12-06T15:18:22.537Z,8.19
2022-12-06T15:20:50.045Z,8.24
2022-12-06T15:23:25.606Z,8.24
2022-12-06T15:25:52.056Z,8.25
2022-12-06T15:28:21.910Z,8.28
2022-12-06T15:30:48.942Z,8.26
2022-12-06T15:33:20.800Z,8.28
2022-12-06T15:35:47.364Z,8.26
2022-12-06T15:38:13.999Z,8.25
2022-12-06T15:40:47.173Z,8.28
2022-12-06T15:43:32.747Z,8.28
2022-12-06T15:46:01.509Z,8.30
2022-12-06T15:48:34.632Z,8.31
2022-12-06T15:51:01.567Z,8.32
2022-12-06T15:53:29.135Z,8.32
2022-12-06T15:55:55.881Z,8.33
2022-12-06T15:58:22.853Z,8.31
2022-12-06T16:00:50.130Z,8.32
2022-12-06T16:03:16.609Z,8.33
2022-12-06T16:05:43.006Z,8.34
2022-12-06T16:08:09.647Z,8.35
2022-12-06T16:11:03.436Z,8.34
2022-12-06T16:13:23.337Z,8.35
2022-12-06T16:15:51.586Z,8.36
2022-12-06T16:18:18.306Z,8.34
2022-12-06T16:20:44.750Z,8.35
2022-12-06T16:24:04.696Z,8.34
2022-12-06T16:26:21.484Z,8.34
2022-12-06T16:28:47.862Z,8.34
2022-12-06T16:31:14.612Z,8.34
2022-12-06T16:33:41.414Z,8.36
2022-12-06T16:36:17.229Z,8.38
2022-12-06T16:38:43.646Z,8.39
2022-12-06T16:41:24.187Z,8.38
2022-12-06T16:43:50.758Z,8.40
2022-12-06T16:46:17.154Z,8.38
2022-12-06T16:48:43.591Z,8.41
2022-12-06T16:51:10.054Z,8.42
2022-12-06T16:53:36.475Z,8.44
2022-12-06T16:56:03.129Z,8.45
2022-12-06T16:58:29.573Z,8.45
2022-12-06T17:00:57.712Z,8.45
2022-12-06T17:03:24.172Z,8.46
2022-12-06T17:05:53.451Z,8.47
2022-12-06T17:08:22.054Z,8.46
2022-12-06T17:10:49.010Z,8.47
2022-12-06T17:13:15.500Z,8.48
2022-12-06T17:15:41.957Z,8.45
2022-12-06T17:18:08.413Z,8.45
2022-12-06T17:20:34.839Z,8.45
2022-12-06T17:23:04.963Z,8.42
2022-12-06T17:25:31.401Z,8.40
2022-12-06T17:27:57.884Z,8.39
2022-12-06T17:30:24.259Z,8.36
2022-12-06T17:32:50.648Z,8.38
2022-12-06T17:35:17.296Z,8.37
2022-12-06T17:37:43.766Z,8.38
2022-12-06T17:40:10.692Z,8.35
2022-12-06T17:42:57.683Z,8.33
2022-12-06T17:45:25.487Z,8.32
2022-12-06T17:47:51.966Z,8.33
2022-12-06T17:50:18.412Z,8.32
2022-12-06T17:52:44.801Z,8.33
2022-12-06T17:55:16.529Z,8.32
2022-12-06T17:57:42.963Z,8.31
2022-12-06T18:00:09.857Z,8.29
2022-12-06T18:02:36.375Z,8.30
2022-12-06T18:05:03.291Z,8.30
2022-12-06T18:07:30.033Z,8.28
2022-12-06T18:09:56.510Z,8.29
2022-12-06T18:12:26.515Z,8.28
2022-12-06T18:14:54.574Z,8.28
2022-12-06T18:17:20.977Z,8.26
2022-12-06T18:19:47.416Z,8.27
2022-12-06T18:22:15.376Z,8.26
2022-12-06T18:24:43.154Z,8.27
2022-12-06T18:27:09.496Z,8.28
2022-12-06T18:29:35.936Z,8.27
2022-12-06T18:32:03.415Z,8.26
2022-12-06T18:34:30.187Z,8.26
2022-12-06T18:36:59.623Z,8.26
2022-12-06T18:39:26.135Z,8.25
2022-12-06T18:41:53.800Z,8.25
2022-12-06T18:44:21.202Z,8.23
2022-12-06T18:46:47.799Z,8.23
2022-12-06T18:49:15.106Z,8.21
2022-12-06T18:51:41.720Z,8.20
2022-12-06T18:54:09.091Z,8.19
2022-12-06T18:56:36.374Z,8.19
2022-12-06T18:59:07.630Z,8.19
2022-12-06T19:01:37.009Z,8.18
2022-12-06T19:04:05.655Z,8.15
2022-12-06T19:06:34.628Z,8.15
2022-12-06T19:09:05.261Z,8.14
2022-12-06T19:11:31.894Z,8.12
2022-12-06T19:14:00.376Z,8.10
2022-12-06T19:16:34.598Z,8.06
2022-12-06T19:19:02.630Z,8.04
2022-12-06T19:21:31.374Z,8.02
2022-12-06T19:23:57.788Z,8.04
2022-12-06T19:26:26.735Z,8.02
2022-12-06T19:28:53.610Z,8.00
2022-12-06T19:31:25.876Z,7.99
2022-12-06T19:33:52.545Z,7.94
2022-12-06T19:36:28.769Z,7.93
2022-12-06T19:39:04.406Z,7.95
2022-12-06T19:41:31.224Z,7.96
2022-12-06T19:44:15.487Z,7.98
2022-12-06T19:46:43.819Z,7.99
2022-12-06T19:49:11.960Z,7.97
2022-12-06T19:51:40.680Z,7.98
2022-12-06T19:54:11.732Z,7.95
2022-12-06T19:56:39.313Z,7.96
2022-12-06T19:59:11.522Z,7.97
2022-12-06T20:01:44.241Z,7.97
2022-12-06T20:04:22.944Z,7.94
2022-12-06T20:06:50.955Z,7.92
2022-12-06T20:09:18.583Z,7.94
2022-12-06T20:12:04.094Z,7.94
2022-12-06T20:14:44.242Z,7.92
2022-12-06T20:17:17.266Z,7.91
2022-12-06T20:19:45.993Z,7.91
2022-12-06T20:22:13.950Z,7.92
2022-12-06T20:24:40.506Z,7.91
2022-12-06T20:27:07.062Z,7.88
2022-12-06T20:29:33.573Z,7.86
2022-12-06T20:32:01.162Z,7.86
2022-12-06T20:34:30.106Z,7.85
2022-12-06T20:36:57.085Z,7.84
2022-12-06T20:39:25.967Z,7.81
2022-12-06T20:41:53.854Z,7.73
2022-12-06T20:44:21.570Z,7.77
2022-12-06T20:46:51.226Z,7.79
2022-12-06T20:49:17.857Z,7.78
2022-12-06T20:51:48.226Z,7.78
2022-12-06T20:54:17.931Z,7.77
2022-12-06T20:56:45.049Z,7.77
2022-12-06T20:59:11.540Z,7.74
2022-12-06T21:01:40.755Z,7.75
2022-12-06T21:04:08.093Z,7.73
2022-12-06T21:06:35.523Z,7.70
2022-12-06T21:09:02.180Z,7.71
2022-12-06T21:11:28.799Z,7.72
2022-12-06T21:13:56.868Z,7.75
2022-12-06T21:16:28.996Z,7.75
2022-12-06T21:18:58.108Z,7.75
2022-12-06T21:21:29.623Z,7.75
2022-12-06T21:23:58.882Z,7.76
2022-12-06T21:26:25.385Z,7.74
2022-12-06T21:28:52.941Z,7.74
2022-12-06T21:31:19.511Z,7.72
2022-12-06T21:33:46.080Z,7.71
2022-12-06T21:36:12.622Z,7.72
2022-12-06T21:38:39.138Z,7.70
2022-12-06T21:41:12.268Z,7.68
2022-12-06T21:43:39.133Z,7.68
2022-12-06T21:46:12.828Z,7.70
2022-12-06T21:48:39.309Z,7.69
2022-12-06T21:51:09.023Z,7.71
2022-12-06T21:53:36.403Z,7.69
2022-12-06T21:56:11.926Z,7.68
2022-12-06T21:58:38.411Z,7.70
2022-12-06T22:01:13.571Z,7.67
2022-12-06T22:03:40.359Z,7.65
2022-12-06T22:06:09.521Z,7.64
2022-12-06T22:08:36.368Z,7.64
2022-12-06T22:11:11.820Z,7.62
2022-12-06T22:13:38.361Z,7.63
2022-12-06T22:16:09.828Z,7.63
2022-12-06T22:18:42.853Z,7.63
2022-12-06T22:21:17.540Z,7.64
2022-12-06T22:23:44.707Z,7.65
2022-12-06T22:26:14.815Z,7.66
2022-12-06T22:28:41.324Z,7.66
2022-12-06T22:31:15.466Z,7.66
2022-12-06T22:33:42.499Z,7.64
2022-12-06T22:36:09.894Z,7.66
2022-12-06T22:38:36.505Z,7.66
2022-12-06T22:41:03.764Z,7.64
2022-12-06T22:43:30.763Z,7.65
2022-12-06T22:46:09.083Z,7.64
2022-12-06T22:48:35.682Z,7.63
2022-12-06T22:51:18.035Z,7.61
2022-12-06T22:53:47.333Z,7.61
2022-12-06T22:56:15.007Z,7.60
2022-12-06T22:58:41.723Z,7.59
2022-12-06T23:01:19.519Z,7.59
2022-12-06T23:03:47.457Z,7.57
2022-12-06T23:06:14.692Z,7.58
2022-12-06T23:08:44.476Z,7.55
2022-12-06T23:11:13.904Z,7.54
2022-12-06T23:13:40.389Z,7.55
2022-12-06T23:16:10.708Z,7.53
2022-12-06T23:18:37.155Z,7.52
2022-12-06T23:21:08.291Z,7.51
2022-12-06T23:23:35.755Z,7.51
2022-12-06T23:26:12.444Z,7.50
2022-12-06T23:28:41.702Z,7.50
2022-12-06T23:31:13.366Z,7.48
2022-12-06T23:33:41.065Z,7.46
2022-12-06T23:36:09.360Z,7.46
2022-12-06T23:38:36.359Z,7.45
2022-12-06T23:41:08.245Z,7.44
2022-12-06T23:43:36.047Z,7.44
2022-12-06T23:46:07.477Z,7.43
2022-12-06T23:48:35.461Z,7.42
2022-12-06T23:51:07.748Z,7.40
2022-12-06T23:53:36.181Z,7.38
2022-12-06T23:56:17.172Z,7.36
2022-12-06T23:58:44.852Z,7.35
